createdAt,value
2023-04-14T00:01:41.394Z,36.26
2023-04-14T00:04:09.439Z,36.04
2023-04-14T00:06:37.301Z,36.29
2023-04-14T00:09:05.375Z,35.93
2023-04-14T00:11:33.170Z,36.06
2023-04-14T00:14:01.746Z,36.24
2023-04-14T00:16:29.549Z,36.11
2023-04-14T00:18:57.425Z,36.16
2023-04-14T00:21:25.191Z,36.31
2023-04-14T00:23:53.020Z,36.32
2023-04-14T00:26:20.860Z,36.04
2023-04-14T00:28:48.950Z,35.87
2023-04-14T00:31:16.875Z,36.25
2023-04-14T00:33:44.827Z,36.21
2023-04-14T00:36:12.583Z,36.06
2023-04-14T00:38:40.439Z,36.06
2023-04-14T00:41:08.290Z,36.38
2023-04-14T00:43:36.109Z,36.15
2023-04-14T00:46:04.080Z,36.41
2023-04-14T00:48:32.478Z,36.08
2023-04-14T00:51:00.440Z,36.03
2023-04-14T00:53:28.699Z,36.15
2023-04-14T00:55:59.277Z,36.35
2023-04-14T00:58:27.098Z,36.28
2023-04-14T01:00:55.779Z,36.09
2023-04-14T01:03:24.808Z,36.42
2023-04-14T01:05:53.306Z,36.09
2023-04-14T01:08:23.660Z,36.31
2023-04-14T01:10:51.424Z,36.42
2023-04-14T01:13:19.225Z,36.15
2023-04-14T01:15:49.102Z,36.37
2023-04-14T01:18:17.616Z,36.38
2023-04-14T01:20:45.968Z,36.22
2023-04-14T01:23:13.738Z,36.07
2023-04-14T01:25:41.589Z,36.09
2023-04-14T01:28:09.386Z,36.42
2023-04-14T01:30:37.213Z,36.36
2023-04-14T01:33:05.094Z,36.19
2023-04-14T01:35:32.904Z,36.36
2023-04-14T01:38:00.874Z,36.28
2023-04-14T01:40:28.931Z,36.02
2023-04-14T01:42:56.717Z,36.31
2023-04-14T01:45:25.703Z,36.47
2023-04-14T01:47:53.588Z,36.43
2023-04-14T01:50:23.599Z,36.39
2023-04-14T01:52:52.946Z,36.34
2023-04-14T01:55:20.850Z,36.73
2023-04-14T01:57:48.613Z,36.26
2023-04-14T02:00:16.418Z,36.33
2023-04-14T02:02:44.392Z,36.37
2023-04-14T02:05:13.170Z,36.23
2023-04-14T02:07:44.351Z,36.52
2023-04-14T02:10:12.153Z,36.55
2023-04-14T02:12:40.023Z,36.53
2023-04-14T02:15:07.853Z,36.33
2023-04-14T02:17:36.007Z,36.10
2023-04-14T02:20:04.341Z,36.26
2023-04-14T02:22:32.381Z,36.44
2023-04-14T02:25:00.163Z,36.11
2023-04-14T02:27:28.400Z,36.28
2023-04-14T02:29:56.238Z,35.90
2023-04-14T02:32:24.171Z,36.41
2023-04-14T02:34:52.038Z,36.70
2023-04-14T02:37:19.974Z,36.53
2023-04-14T02:39:48.037Z,36.69
2023-04-14T02:42:15.896Z,36.18
2023-04-14T02:44:43.932Z,36.27
2023-04-14T02:47:11.703Z,36.50
2023-04-14T02:49:39.496Z,36.34
2023-04-14T02:52:07.365Z,36.20
2023-04-14T02:54:37.275Z,36.49
2023-04-14T02:57:05.101Z,36.47
2023-04-14T02:59:33.256Z,36.32
2023-04-14T03:02:02.937Z,36.37
2023-04-14T03:04:36.697Z,36.80
2023-04-14T03:07:04.801Z,36.41
2023-04-14T03:09:32.594Z,36.68
2023-04-14T03:12:00.540Z,36.71
2023-04-14T03:14:28.269Z,36.74
2023-04-14T03:16:56.128Z,36.87
2023-04-14T03:19:23.937Z,36.50
2023-04-14T03:21:51.705Z,36.58
2023-04-14T03:24:24.374Z,36.06
2023-04-14T03:26:52.171Z,36.24
2023-04-14T03:29:21.038Z,36.32
2023-04-14T03:31:48.868Z,36.19
2023-04-14T03:34:16.665Z,36.40
2023-04-14T03:36:44.446Z,36.64
2023-04-14T03:39:12.674Z,36.21
2023-04-14T03:41:40.531Z,36.27
2023-04-14T03:44:10.948Z,36.73
2023-04-14T03:46:38.807Z,36.32
2023-04-14T03:49:11.172Z,36.44
2023-04-14T03:51:39.071Z,36.37
2023-04-14T03:54:06.923Z,36.35
2023-04-14T03:56:38.099Z,36.23
2023-04-14T03:59:09.993Z,36.82
2023-04-14T04:01:37.985Z,36.30
2023-04-14T04:04:06.306Z,36.39
2023-04-14T04:06:34.179Z,36.47
2023-04-14T04:09:02.384Z,36.79
2023-04-14T04:11:30.534Z,36.74
2023-04-14T04:13:58.326Z,36.71
2023-04-14T04:16:26.290Z,37.08
2023-04-14T04:18:54.086Z,36.82
2023-04-14T04:21:22.015Z,36.98
2023-04-14T04:23:49.783Z,37.25
2023-04-14T04:26:18.573Z,36.93
2023-04-14T04:28:46.366Z,37.48
2023-04-14T04:31:14.237Z,37.45
2023-04-14T04:33:42.044Z,37.23
2023-04-14T04:36:09.866Z,37.09
2023-04-14T04:38:37.673Z,37.48
2023-04-14T04:41:05.631Z,37.62
2023-04-14T04:43:33.485Z,37.35
2023-04-14T04:46:01.347Z,37.24
2023-04-14T04:48:29.153Z,37.09
2023-04-14T04:50:56.934Z,37.41
2023-04-14T04:53:24.731Z,37.31
2023-04-14T04:55:54.678Z,36.94
2023-04-14T04:58:22.475Z,37.49
2023-04-14T05:00:50.431Z,37.42
2023-04-14T05:03:18.362Z,37.31
2023-04-14T05:05:47.120Z,37.26
2023-04-14T05:08:15.408Z,37.14
2023-04-14T05:10:43.330Z,37.10
2023-04-14T05:13:11.462Z,36.99
2023-04-14T05:15:39.418Z,37.01
2023-04-14T05:18:07.321Z,36.83
2023-04-14T05:20:35.210Z,36.84
2023-04-14T05:23:03.011Z,37.18
2023-04-14T05:25:30.905Z,37.14
2023-04-14T05:27:58.737Z,37.08
2023-04-14T05:30:26.651Z,36.63
2023-04-14T05:32:54.538Z,36.75
2023-04-14T05:35:24.796Z,37.51
2023-04-14T05:37:52.628Z,36.70
2023-04-14T05:40:20.873Z,36.61
2023-04-14T05:42:48.681Z,36.75
2023-04-14T05:45:16.472Z,36.76
2023-04-14T05:47:44.712Z,36.95
2023-04-14T05:50:12.711Z,36.85
2023-04-14T05:52:40.567Z,37.08
2023-04-14T05:55:08.371Z,36.68
2023-04-14T05:57:36.428Z,36.92
2023-04-14T06:00:04.387Z,36.63
2023-04-14T06:02:32.380Z,36.89
2023-04-14T06:05:01.721Z,36.61
2023-04-14T06:07:30.175Z,36.63
2023-04-14T06:09:57.956Z,37.07
2023-04-14T06:12:25.996Z,36.71
2023-04-14T06:14:53.857Z,36.86
2023-04-14T06:17:21.703Z,37.04
2023-04-14T06:19:49.547Z,36.62
2023-04-14T06:22:19.893Z,36.69
2023-04-14T06:24:47.750Z,36.71
2023-04-14T06:27:15.809Z,36.57
2023-04-14T06:29:43.631Z,36.56
2023-04-14T06:32:11.595Z,36.73
2023-04-14T06:34:39.390Z,36.21
2023-04-14T06:37:07.160Z,36.64
2023-04-14T06:39:35.256Z,36.80
2023-04-14T06:42:03.002Z,36.51
2023-04-14T06:44:30.776Z,36.71
2023-04-14T06:46:59.280Z,36.41
2023-04-14T06:49:27.544Z,36.87
2023-04-14T06:51:55.311Z,36.88
2023-04-14T06:54:23.163Z,36.42
2023-04-14T06:56:50.973Z,36.70
2023-04-14T06:59:21.159Z,36.72
2023-04-14T07:01:49.153Z,36.78
2023-04-14T07:04:19.502Z,36.38
2023-04-14T07:06:47.308Z,36.79
2023-04-14T07:09:15.131Z,36.70
2023-04-14T07:11:42.958Z,36.37
2023-04-14T07:14:10.742Z,36.58
2023-04-14T07:16:38.559Z,36.71
2023-04-14T07:19:06.356Z,36.58
2023-04-14T07:21:34.153Z,36.44
2023-04-14T07:24:02.134Z,36.60
2023-04-14T07:26:30.476Z,36.87
2023-04-14T07:28:58.459Z,36.76
2023-04-14T07:31:26.758Z,36.57
2023-04-14T07:33:54.589Z,36.51
2023-04-14T07:36:22.456Z,36.84
2023-04-14T07:38:50.410Z,36.44
2023-04-14T07:41:18.191Z,36.39
2023-04-14T07:43:46.029Z,36.33
2023-04-14T07:46:14.300Z,36.30
2023-04-14T07:48:42.730Z,36.88
2023-04-14T07:51:12.176Z,36.62
2023-04-14T07:53:43.289Z,36.83
2023-04-14T07:56:11.134Z,36.90
2023-04-14T07:58:39.049Z,36.48
2023-04-14T08:01:07.191Z,36.86
2023-04-14T08:03:36.541Z,36.81
2023-04-14T08:06:04.458Z,36.27
2023-04-14T08:08:32.360Z,36.30
2023-04-14T08:11:00.234Z,36.72
2023-04-14T08:13:27.998Z,36.43
2023-04-14T08:15:55.888Z,36.75
2023-04-14T08:18:23.723Z,36.45
2023-04-14T08:20:51.591Z,36.34
2023-04-14T08:23:20.986Z,36.48
2023-04-14T08:25:48.860Z,36.82
2023-04-14T08:28:16.650Z,36.50
2023-04-14T08:30:44.463Z,36.84
2023-04-14T08:33:12.317Z,36.34
2023-04-14T08:35:42.497Z,36.06
2023-04-14T08:38:11.109Z,36.22
2023-04-14T08:40:39.456Z,36.78
2023-04-14T08:43:07.295Z,36.49
2023-04-14T08:45:35.197Z,36.21
2023-04-14T08:48:03.254Z,36.26
2023-04-14T08:50:32.043Z,36.44
2023-04-14T08:52:59.836Z,36.59
2023-04-14T08:55:27.665Z,36.52
2023-04-14T08:57:55.493Z,36.37
2023-04-14T09:00:23.413Z,36.44
2023-04-14T09:02:51.339Z,36.25
2023-04-14T09:05:19.207Z,36.27
2023-04-14T09:07:47.044Z,36.04
2023-04-14T09:10:14.873Z,36.04
2023-04-14T09:12:42.610Z,36.12
2023-04-14T09:15:10.472Z,36.13
2023-04-14T09:17:38.253Z,36.21
2023-04-14T09:20:36.682Z,36.05
2023-04-14T09:22:53.849Z,36.03
2023-04-14T09:25:21.609Z,36.18
2023-04-14T09:27:49.386Z,35.86
2023-04-14T09:30:17.716Z,35.69
2023-04-14T09:32:45.634Z,35.97
2023-04-14T09:35:14.289Z,35.96
2023-04-14T09:37:42.523Z,36.03
2023-04-14T09:40:10.359Z,36.06
2023-04-14T09:42:38.173Z,36.11
2023-04-14T09:45:06.206Z,35.76
2023-04-14T09:47:34.115Z,36.06
2023-04-14T09:50:03.388Z,36.13
2023-04-14T09:52:31.288Z,35.30
2023-04-14T09:54:59.231Z,35.79
2023-04-14T09:57:27.518Z,35.66
2023-04-14T09:59:55.432Z,35.87
2023-04-14T10:02:23.499Z,35.96
2023-04-14T10:04:51.447Z,35.59
2023-04-14T10:07:20.040Z,35.60
2023-04-14T10:09:47.852Z,35.41
2023-04-14T10:12:15.712Z,36.00
2023-04-14T10:14:43.540Z,35.39
2023-04-14T10:17:11.943Z,35.67
2023-04-14T10:19:39.844Z,35.64
2023-04-14T10:22:07.617Z,35.49
2023-04-14T10:24:35.415Z,35.45
2023-04-14T10:27:03.888Z,35.43
2023-04-14T10:29:31.959Z,35.87
2023-04-14T10:32:00.594Z,35.66
2023-04-14T10:34:28.483Z,35.88
2023-04-14T10:36:56.307Z,35.98
2023-04-14T10:39:24.828Z,35.97
2023-04-14T10:41:52.642Z,35.63
2023-04-14T10:44:20.470Z,35.83
2023-04-14T10:46:48.801Z,36.02
2023-04-14T10:49:16.859Z,35.39
2023-04-14T10:51:45.686Z,35.63
2023-04-14T10:54:13.968Z,35.88
2023-04-14T10:56:41.752Z,35.87
2023-04-14T10:59:09.561Z,36.04
2023-04-14T11:01:39.450Z,35.55
2023-04-14T11:04:07.735Z,35.85
2023-04-14T11:06:35.594Z,35.55
2023-04-14T11:09:03.659Z,35.65
2023-04-14T11:11:31.583Z,36.04
2023-04-14T11:13:59.381Z,35.83
2023-04-14T11:16:27.296Z,36.01
2023-04-14T11:18:56.229Z,35.66
2023-04-14T11:21:26.107Z,35.54
2023-04-14T11:23:53.897Z,35.38
2023-04-14T11:26:22.616Z,35.29
2023-04-14T11:28:53.229Z,35.46
2023-04-14T11:31:23.288Z,35.26
2023-04-14T11:33:51.206Z,35.30
2023-04-14T11:36:19.012Z,35.16
2023-04-14T11:38:47.301Z,35.30
2023-04-14T11:41:15.114Z,35.41
2023-04-14T11:43:46.912Z,35.19
2023-04-14T11:46:15.681Z,35.69
2023-04-14T11:48:43.574Z,35.52
2023-04-14T11:51:11.476Z,35.66
2023-04-14T11:53:40.572Z,35.51
2023-04-14T11:56:09.633Z,35.49
2023-04-14T11:58:37.472Z,35.35
2023-04-14T12:01:05.371Z,35.67
2023-04-14T12:03:35.241Z,35.32
2023-04-14T12:06:03.574Z,35.34
2023-04-14T12:08:31.618Z,35.55
2023-04-14T12:10:59.519Z,35.41
2023-04-14T12:13:28.256Z,35.43
2023-04-14T12:15:56.219Z,35.37
2023-04-14T12:18:24.091Z,35.10
2023-04-14T12:20:51.921Z,34.94
2023-04-14T12:23:19.735Z,35.10
2023-04-14T12:25:47.837Z,35.08
2023-04-14T12:28:15.684Z,35.12
2023-04-14T12:30:43.570Z,35.23
2023-04-14T12:33:12.109Z,35.38
2023-04-14T12:35:40.583Z,35.37
2023-04-14T12:38:08.503Z,35.13
2023-04-14T12:40:36.638Z,35.15
2023-04-14T12:43:04.685Z,35.37
2023-04-14T12:45:32.436Z,35.33
2023-04-14T12:48:00.749Z,35.13
2023-04-14T12:50:29.242Z,35.08
2023-04-14T12:52:57.124Z,35.18
2023-04-14T12:55:24.988Z,35.33
2023-04-14T12:57:53.047Z,35.26
2023-04-14T13:00:21.371Z,34.89
2023-04-14T13:02:49.511Z,35.10
2023-04-14T13:05:17.444Z,35.17
2023-04-14T13:07:46.509Z,34.69
2023-04-14T13:10:14.345Z,35.23
2023-04-14T13:12:42.193Z,35.14
2023-04-14T13:15:10.049Z,34.79
2023-04-14T13:17:57.839Z,35.19
2023-04-14T13:20:25.869Z,35.18
2023-04-14T13:22:53.661Z,35.21
2023-04-14T13:25:22.062Z,35.04
2023-04-14T13:27:49.926Z,34.96
2023-04-14T13:30:17.790Z,34.93
2023-04-14T13:32:46.129Z,34.87
2023-04-14T13:35:14.073Z,35.11
2023-04-14T13:37:42.708Z,34.99
2023-04-14T13:40:10.528Z,34.97
2023-04-14T13:42:38.338Z,35.37
2023-04-14T13:45:06.117Z,35.22
2023-04-14T13:47:33.963Z,35.06
2023-04-14T13:50:01.707Z,34.22
2023-04-14T13:52:29.533Z,33.98
2023-04-14T13:54:57.325Z,33.25
2023-04-14T13:57:25.147Z,32.64
2023-04-14T13:59:52.923Z,32.41
2023-04-14T14:02:21.619Z,32.33
2023-04-14T14:04:49.491Z,31.87
2023-04-14T14:07:17.316Z,31.78
2023-04-14T14:09:45.968Z,32.13
2023-04-14T14:12:13.803Z,31.62
2023-04-14T14:14:41.584Z,31.93
2023-04-14T14:17:10.069Z,31.48
2023-04-14T14:19:37.857Z,31.77
2023-04-14T14:22:07.423Z,31.57
2023-04-14T14:24:35.245Z,31.41
2023-04-14T14:27:03.128Z,31.39
2023-04-14T14:29:30.962Z,32.00
2023-04-14T14:31:58.765Z,31.88
2023-04-14T14:34:26.570Z,31.97
2023-04-14T14:36:54.427Z,31.77
2023-04-14T14:39:24.572Z,32.00
2023-04-14T14:41:52.808Z,32.44
2023-04-14T14:44:20.632Z,32.24
2023-04-14T14:46:48.453Z,31.92
2023-04-14T14:49:16.430Z,32.03
2023-04-14T14:51:44.233Z,31.94
2023-04-14T14:54:12.225Z,31.77
2023-04-14T14:56:40.290Z,32.12
2023-04-14T14:59:08.525Z,32.05
2023-04-14T15:01:36.468Z,32.62
2023-04-14T15:04:06.485Z,32.89
2023-04-14T15:06:35.405Z,32.83
2023-04-14T15:09:04.040Z,32.86
2023-04-14T15:11:31.872Z,32.81
2023-04-14T15:13:59.834Z,33.29
2023-04-14T15:16:27.942Z,33.34
2023-04-14T15:18:55.964Z,33.29
2023-04-14T15:21:23.773Z,33.49
2023-04-14T15:23:52.234Z,33.80
2023-04-14T15:26:20.301Z,33.64
2023-04-14T15:28:48.535Z,33.42
2023-04-14T15:31:16.336Z,33.36
2023-04-14T15:33:44.807Z,33.94
2023-04-14T15:36:12.620Z,33.60
2023-04-14T15:38:40.452Z,33.73
2023-04-14T15:41:08.330Z,33.63
2023-04-14T15:43:36.240Z,34.29
2023-04-14T15:46:04.119Z,33.92
2023-04-14T15:48:31.970Z,34.23
2023-04-14T15:50:59.791Z,33.82
2023-04-14T15:53:27.674Z,33.62
2023-04-14T15:55:55.551Z,33.62
2023-04-14T15:58:23.519Z,34.02
2023-04-14T16:00:51.644Z,33.78
2023-04-14T16:03:19.788Z,33.99
2023-04-14T16:05:48.177Z,34.05
2023-04-14T16:08:17.034Z,33.74
2023-04-14T16:10:44.889Z,33.69
2023-04-14T16:13:14.799Z,33.98
2023-04-14T16:15:42.911Z,33.77
2023-04-14T16:18:10.731Z,33.63
2023-04-14T16:20:38.798Z,33.92
2023-04-14T16:23:06.766Z,33.87
2023-04-14T16:25:34.649Z,34.02
2023-04-14T16:28:02.632Z,34.05
2023-04-14T16:30:30.616Z,34.46
2023-04-14T16:32:58.635Z,34.21
2023-04-14T16:35:26.969Z,34.48
2023-04-14T16:37:55.106Z,34.38
2023-04-14T16:40:23.198Z,34.78
2023-04-14T16:42:51.174Z,34.49
2023-04-14T16:45:19.229Z,34.92
2023-04-14T16:47:47.797Z,34.83
2023-04-14T16:50:16.315Z,35.21
2023-04-14T16:52:44.262Z,35.12
2023-04-14T16:55:12.627Z,35.06
2023-04-14T16:57:40.418Z,34.71
2023-04-14T17:00:08.566Z,34.64
2023-04-14T17:02:38.422Z,34.36
2023-04-14T17:05:07.990Z,34.28
2023-04-14T17:07:35.868Z,34.68
2023-04-14T17:10:03.856Z,34.81
2023-04-14T17:12:31.762Z,35.08
2023-04-14T17:15:00.428Z,35.12
2023-04-14T17:17:28.551Z,35.05
2023-04-14T17:19:58.233Z,34.62
2023-04-14T17:22:26.072Z,34.89
2023-04-14T17:24:53.877Z,34.95
2023-04-14T17:27:22.417Z,35.02
2023-04-14T17:29:50.158Z,35.08
2023-04-14T17:32:18.729Z,35.49
2023-04-14T17:34:46.995Z,35.49
2023-04-14T17:37:15.082Z,35.69
2023-04-14T17:39:43.441Z,35.39
2023-04-14T17:42:11.434Z,35.82
2023-04-14T17:44:39.410Z,35.96
2023-04-14T17:47:13.184Z,35.66
2023-04-14T17:49:41.055Z,35.82
2023-04-14T17:52:09.171Z,35.79
2023-04-14T17:54:36.990Z,35.65
2023-04-14T17:57:05.038Z,35.79
2023-04-14T17:59:33.131Z,35.73
2023-04-14T18:02:01.165Z,35.44
2023-04-14T18:04:29.325Z,35.52
2023-04-14T18:06:57.372Z,35.99
2023-04-14T18:09:25.402Z,35.83
2023-04-14T18:11:53.746Z,35.35
2023-04-14T18:14:21.617Z,35.36
2023-04-14T18:16:49.549Z,35.13
2023-04-14T18:19:17.930Z,35.57
2023-04-14T18:21:46.834Z,35.11
2023-04-14T18:26:45.873Z,34.98
2023-04-14T18:29:13.670Z,35.38
2023-04-14T18:31:42.826Z,34.96
2023-04-14T18:34:11.795Z,35.25
2023-04-14T18:36:40.445Z,35.24
2023-04-14T18:39:08.618Z,35.36
2023-04-14T18:41:36.407Z,35.72
2023-04-14T18:44:04.630Z,35.63
2023-04-14T18:46:32.621Z,35.15
2023-04-14T18:49:00.793Z,35.15
2023-04-14T18:51:28.839Z,35.36
2023-04-14T18:53:57.053Z,35.63
2023-04-14T18:56:25.034Z,35.71
2023-04-14T18:58:52.966Z,35.63
2023-04-14T19:01:20.889Z,35.70
2023-04-14T19:03:48.958Z,35.84
2023-04-14T19:06:17.218Z,36.15
2023-04-14T19:08:45.136Z,36.10
2023-04-14T19:11:13.043Z,35.79
2023-04-14T19:13:42.217Z,36.04
2023-04-14T19:16:11.640Z,36.08
2023-04-14T19:18:39.806Z,36.05
2023-04-14T19:21:09.092Z,36.25
2023-04-14T19:23:37.038Z,36.00
2023-04-14T19:26:05.454Z,36.33
2023-04-14T19:28:33.922Z,36.63
2023-04-14T19:31:01.771Z,36.42
2023-04-14T19:33:29.654Z,36.45
2023-04-14T19:35:57.483Z,36.71
2023-04-14T19:38:25.414Z,36.46
2023-04-14T19:40:53.688Z,36.55
2023-04-14T19:43:23.029Z,36.69
2023-04-14T19:45:51.662Z,36.68
2023-04-14T19:48:23.314Z,36.50
2023-04-14T19:50:52.182Z,36.77
2023-04-14T19:53:20.519Z,36.58
2023-04-14T19:55:48.755Z,36.26
2023-04-14T19:58:16.618Z,36.74
2023-04-14T20:00:45.281Z,36.82
2023-04-14T20:03:13.175Z,36.76
2023-04-14T20:05:41.022Z,36.42
2023-04-14T20:08:08.834Z,36.34
2023-04-14T20:10:36.754Z,36.32
2023-04-14T20:13:04.697Z,36.56
2023-04-14T20:15:32.499Z,36.87
2023-04-14T20:18:01.770Z,36.58
2023-04-14T20:20:29.614Z,36.91
2023-04-14T20:22:58.787Z,36.85
2023-04-14T20:25:26.920Z,36.43
2023-04-14T20:27:54.899Z,36.60
2023-04-14T20:30:22.638Z,37.06
2023-04-14T20:32:50.624Z,36.89
2023-04-14T20:35:18.672Z,36.65
2023-04-14T20:37:46.520Z,36.73
2023-04-14T20:40:16.101Z,36.97
2023-04-14T20:42:44.351Z,36.76
2023-04-14T20:45:12.284Z,36.65
2023-04-14T20:47:40.681Z,37.10
2023-04-14T20:50:08.626Z,36.95
2023-04-14T20:52:36.445Z,36.78
2023-04-14T20:55:04.389Z,36.62
2023-04-14T20:57:32.472Z,37.09
2023-04-14T21:00:00.440Z,36.45
2023-04-14T21:02:28.536Z,37.10
2023-04-14T21:04:56.725Z,37.05
2023-04-14T21:07:24.630Z,36.94
2023-04-14T21:09:52.577Z,36.87
2023-04-14T21:12:20.388Z,36.67
2023-04-14T21:15:41.442Z,36.53
2023-04-14T21:17:36.090Z,37.07
2023-04-14T21:20:04.151Z,36.77
2023-04-14T21:22:32.730Z,36.95
2023-04-14T21:25:00.631Z,37.08
2023-04-14T21:27:29.400Z,36.76
2023-04-14T21:29:57.386Z,37.15
2023-04-14T21:32:25.514Z,36.72
2023-04-14T21:34:53.404Z,36.86
2023-04-14T21:37:21.687Z,37.30
2023-04-14T21:39:49.814Z,36.44
2023-04-14T21:42:17.676Z,37.06
2023-04-14T21:44:45.739Z,36.97
2023-04-14T21:47:13.574Z,36.94
2023-04-14T21:49:41.427Z,36.77
2023-04-14T21:52:10.215Z,36.74
2023-04-14T21:54:41.468Z,37.28
2023-04-14T21:57:09.729Z,36.99
2023-04-14T21:59:37.562Z,36.93
2023-04-14T22:02:05.488Z,37.26
2023-04-14T22:04:37.024Z,37.17
2023-04-14T22:07:05.445Z,36.92
2023-04-14T22:09:33.904Z,37.04
2023-04-14T22:12:02.037Z,36.85
2023-04-14T22:14:29.993Z,37.25
2023-04-14T22:19:28.678Z,37.35
2023-04-14T22:21:56.483Z,37.10
2023-04-14T22:24:24.352Z,37.13
2023-04-14T22:26:52.168Z,36.89
2023-04-14T22:29:20.146Z,36.90
2023-04-14T22:31:48.145Z,36.75
2023-04-14T22:34:15.927Z,37.25
2023-04-14T22:36:43.773Z,36.85
2023-04-14T22:39:11.692Z,37.18
2023-04-14T22:41:39.582Z,37.09
2023-04-14T22:44:07.958Z,37.17
2023-04-14T22:46:36.254Z,36.99
2023-04-14T22:49:04.523Z,37.16
2023-04-14T22:51:32.524Z,36.70
2023-04-14T22:54:00.794Z,37.27
2023-04-14T22:56:28.597Z,36.90
2023-04-14T22:58:56.646Z,37.07
2023-04-14T23:01:25.223Z,37.04
2023-04-14T23:03:53.529Z,37.01
2023-04-14T23:06:21.360Z,37.40
2023-04-14T23:08:49.139Z,36.97
2023-04-14T23:11:18.463Z,37.10
2023-04-14T23:13:48.204Z,37.15
2023-04-14T23:16:16.865Z,37.18
2023-04-14T23:18:49.486Z,37.25
2023-04-14T23:21:17.930Z,37.21
2023-04-14T23:23:46.094Z,37.24
2023-04-14T23:26:13.949Z,37.21
2023-04-14T23:28:41.837Z,36.91
2023-04-14T23:31:09.708Z,37.18
2023-04-14T23:33:37.667Z,37.48
2023-04-14T23:36:06.481Z,36.98
2023-04-14T23:38:34.438Z,36.96
2023-04-14T23:41:02.290Z,37.13
2023-04-14T23:43:30.341Z,37.03
2023-04-14T23:45:58.248Z,37.23
2023-04-14T23:48:26.186Z,37.21
2023-04-14T23:51:00.758Z,37.12
2023-04-14T23:53:41.821Z,37.23
2023-04-14T23:56:09.606Z,36.92
2023-04-14T23:58:37.591Z,36.94
